Time;durP1;ratioP1;P1;durP2;ratioP2;P2;SDS_P1;SDS_P2;PMS_P1;PMS_P2;Temp;Humidity;BMP_temperature;BMP_pressure;BME280_temperature;BME280_humidity;BME280_pressure;Samples;Min_cycle;Max_cycle;Signal;HPM_P1;HPM_P2
2022/09/23 00:01:19;;;;;;;5.20;3.25;;;19.20;99.90;;;;;;5066504;28;20380;-83
2022/09/23 00:03:48;;;;;;;6.45;3.60;;;19.30;99.90;;;;;;5069338;28;20390;-79
2022/09/23 00:06:19;;;;;;;6.35;3.70;;;19.50;99.90;;;;;;5064093;28;20475;-82
2022/09/23 00:08:50;;;;;;;6.40;3.97;;;19.50;99.90;;;;;;5062286;28;20040;-82
2022/09/23 00:11:25;;;;;;;6.78;4.10;;;19.60;99.90;;;;;;5063320;28;20103;-83
2022/09/23 00:13:55;;;;;;;6.47;3.72;;;19.60;99.90;;;;;;5069303;28;20108;-81
2022/09/23 00:16:29;;;;;;;6.10;3.67;;;19.50;99.90;;;;;;5065943;28;20021;-82
2022/09/23 00:18:57;;;;;;;10.52;4.55;;;19.40;99.90;;;;;;5063646;28;20045;-81
2022/09/23 00:21:24;;;;;;;7.88;4.78;;;19.20;99.90;;;;;;5060211;28;20039;-82
2022/09/23 00:23:52;;;;;;;7.95;4.65;;;19.00;99.90;;;;;;5061373;28;20404;-79
2022/09/23 00:26:22;;;;;;;11.52;4.78;;;18.90;99.90;;;;;;5063123;28;20041;-77
2022/09/23 00:28:50;;;;;;;13.70;5.00;;;18.70;99.90;;;;;;5066990;28;20035;-76
2022/09/23 00:31:24;;;;;;;12.20;6.25;;;18.70;99.90;;;;;;5061805;28;20053;-80
2022/09/23 00:34:00;;;;;;;8.18;4.10;;;18.70;99.90;;;;;;5058518;28;20486;-78
2022/09/23 00:36:31;;;;;;;8.35;4.45;;;18.80;99.90;;;;;;5061879;28;20036;-83
2022/09/23 00:38:58;;;;;;;11.02;5.22;;;18.80;99.90;;;;;;5047842;28;20483;-78
2022/09/23 00:41:26;;;;;;;10.10;5.30;;;18.80;99.90;;;;;;5059657;28;20028;-83
2022/09/23 00:43:59;;;;;;;10.57;5.50;;;18.90;99.90;;;;;;5063595;28;20094;-79
2022/09/23 00:46:42;;;;;;;13.15;4.72;;;19.00;99.90;;;;;;5060626;28;20029;-77
2022/09/23 00:49:14;;;;;;;6.38;5.00;;;19.10;99.90;;;;;;5056780;28;20024;-78
2022/09/23 00:51:48;;;;;;;6.43;3.90;;;19.20;99.90;;;;;;5062044;28;20017;-78
2022/09/23 00:54:17;;;;;;;5.70;4.27;;;19.30;99.90;;;;;;5055294;28;20027;-79
2022/09/23 00:56:45;;;;;;;10.32;5.03;;;19.40;99.90;;;;;;5061726;28;20116;-79
2022/09/23 00:59:12;;;;;;;8.45;4.45;;;19.60;99.90;;;;;;5068517;28;20044;-79
2022/09/23 01:01:40;;;;;;;6.65;4.10;;;19.60;99.90;;;;;;5068669;28;20141;-79
2022/09/23 01:04:08;;;;;;;7.85;3.35;;;19.60;99.90;;;;;;5055816;28;20021;-88
2022/09/23 01:06:36;;;;;;;8.68;3.85;;;19.70;99.90;;;;;;5061244;28;20028;-80
2022/09/23 01:09:04;;;;;;;9.25;3.85;;;19.90;99.90;;;;;;5065488;28;20489;-82
2022/09/23 01:11:49;;;;;;;9.45;3.45;;;20.00;99.90;;;;;;5057985;28;20045;-81
2022/09/23 01:14:55;;;;;;;5.00;2.85;;;20.30;99.90;;;;;;5054127;28;20491;-84
2022/09/23 01:17:39;;;;;;;7.43;2.55;;;20.90;99.90;;;;;;5007663;28;20388;-81
2022/09/23 01:20:16;;;;;;;10.43;3.08;;;21.40;99.90;;;;;;5008037;28;20034;-83
2022/09/23 01:23:17;;;;;;;6.07;2.10;;;21.80;99.90;;;;;;5037767;28;20068;-82
2022/09/23 01:26:06;;;;;;;7.80;3.17;;;21.90;99.90;;;;;;5066463;28;20505;-79
2022/09/23 01:28:46;;;;;;;7.38;2.75;;;22.00;99.90;;;;;;5064791;28;20017;-82
2022/09/23 01:31:24;;;;;;;7.82;2.55;;;22.10;99.90;;;;;;5065689;28;20702;-81
2022/09/23 01:34:34;;;;;;;7.28;2.63;;;21.90;99.90;;;;;;5066649;28;20158;-89
2022/09/23 01:37:23;;;;;;;4.55;2.05;;;21.60;99.90;;;;;;5037902;28;20074;-79
2022/09/23 01:40:11;;;;;;;4.57;2.53;;;21.30;99.90;;;;;;5060435;28;20043;-84
2022/09/23 01:42:50;;;;;;;5.72;2.00;;;21.00;99.90;;;;;;5067982;28;20030;-83
2022/09/23 01:45:46;;;;;;;9.43;3.17;;;20.80;99.90;;;;;;5069025;28;20104;-82
2022/09/23 01:48:19;;;;;;;5.55;2.10;;;20.60;99.90;;;;;;5062578;28;20045;-75
2022/09/23 01:51:07;;;;;;;5.97;2.45;;;20.50;99.90;;;;;;5066008;28;20029;-85
2022/09/23 01:53:45;;;;;;;6.70;3.45;;;20.40;99.90;;;;;;5069653;28;20058;-79
2022/09/23 01:56:28;;;;;;;9.98;3.28;;;20.20;99.90;;;;;;5077878;28;20059;-80
2022/09/23 01:59:02;;;;;;;3.42;2.13;;;19.70;99.90;;;;;;5062802;28;20025;-87
2022/09/23 02:02:03;;;;;;;10.85;2.47;;;19.30;99.90;;;;;;5078870;28;20033;-77
2022/09/23 02:04:38;;;;;;;8.50;1.58;;;18.90;99.90;;;;;;5046294;28;20075;-75
2022/09/23 02:07:17;;;;;;;5.90;1.50;;;18.60;99.90;;;;;;5065200;28;20075;-79
2022/09/23 02:09:48;;;;;;;8.15;1.92;;;18.40;99.90;;;;;;5068747;28;20032;-84
2022/09/23 02:12:19;;;;;;;5.97;2.13;;;18.20;99.90;;;;;;5080670;28;20437;-77
2022/09/23 02:15:11;;;;;;;4.10;1.48;;;18.10;99.90;;;;;;5068211;28;20028;-83
2022/09/23 02:17:48;;;;;;;5.90;1.55;;;18.20;99.90;;;;;;5068643;28;20021;-85
2022/09/23 02:20:24;;;;;;;5.93;2.00;;;18.40;99.90;;;;;;5069447;28;20475;-91
2022/09/23 02:23:20;;;;;;;8.10;2.83;;;18.60;99.90;;;;;;5067858;28;20040;-91
2022/09/23 02:26:21;;;;;;;9.70;3.03;;;18.80;99.90;;;;;;5062646;28;20464;-90
2022/09/23 02:28:52;;;;;;;5.78;2.75;;;19.10;99.90;;;;;;5056391;28;20510;-88
2022/09/23 02:31:36;;;;;;;8.23;3.03;;;19.60;99.90;;;;;;5064190;28;20602;-86
2022/09/23 02:34:16;;;;;;;10.82;2.92;;;20.10;99.90;;;;;;5072822;28;20111;-86
2022/09/23 02:37:06;;;;;;;9.85;2.92;;;20.40;99.90;;;;;;5072414;28;20419;-82
2022/09/23 02:39:55;;;;;;;13.85;3.08;;;20.70;99.90;;;;;;5060053;28;20021;-88
2022/09/23 02:42:30;;;;;;;12.20;3.33;;;20.80;99.90;;;;;;5063843;28;20056;-87
2022/09/23 02:44:57;;;;;;;13.75;2.97;;;20.70;99.90;;;;;;5058731;28;20020;-82
2022/09/23 02:47:30;;;;;;;8.73;2.63;;;20.60;99.90;;;;;;5070112;28;20082;-84
2022/09/23 02:49:57;;;;;;;9.85;2.13;;;20.60;99.90;;;;;;5069819;28;20025;-86
2022/09/23 02:52:25;;;;;;;8.38;2.40;;;20.60;99.90;;;;;;5057785;28;20024;-85
2022/09/23 02:54:53;;;;;;;6.45;2.58;;;20.90;99.90;;;;;;5066243;28;20044;-83
2022/09/23 02:57:20;;;;;;;6.25;1.70;;;21.30;99.90;;;;;;5081720;28;20127;-90
2022/09/23 02:59:49;;;;;;;4.55;1.30;;;21.60;99.90;;;;;;5070718;28;20082;-82
2022/09/23 03:02:20;;;;;;;6.90;1.80;;;21.90;99.90;;;;;;5060774;28;20479;-78
2022/09/23 03:05:22;;;;;;;5.20;1.63;;;21.90;99.90;;;;;;5053174;28;20078;-88
2022/09/23 03:08:24;;;;;;;7.65;2.58;;;21.80;99.90;;;;;;5068855;28;20035;-82
2022/09/23 03:10:56;;;;;;;6.60;2.17;;;21.70;99.90;;;;;;5072751;28;20490;-85
2022/09/23 03:13:27;;;;;;;4.80;1.30;;;21.40;99.90;;;;;;5061032;28;20065;-84
2022/09/23 03:16:00;;;;;;;3.53;1.15;;;21.50;99.90;;;;;;5069679;28;20024;-78
2022/09/23 03:18:38;;;;;;;6.95;1.65;;;21.40;99.90;;;;;;5041992;28;20345;-75
2022/09/23 03:21:26;;;;;;;4.82;1.40;;;21.20;99.90;;;;;;5070976;28;20463;-78
2022/09/23 03:23:56;;;;;;;5.07;1.67;;;20.90;99.90;;;;;;5063633;28;20082;-86
2022/09/23 03:26:34;;;;;;;9.57;1.92;;;20.80;99.90;;;;;;5065803;28;20439;-79
2022/09/23 03:29:08;;;;;;;4.47;2.40;;;20.60;99.90;;;;;;5051329;28;20051;-80
2022/09/23 03:31:41;;;;;;;5.30;2.17;;;20.50;99.90;;;;;;5069947;28;20051;-84
2022/09/23 03:34:31;;;;;;;7.88;2.88;;;20.40;99.90;;;;;;5073906;28;20035;-80
2022/09/23 03:37:25;;;;;;;5.57;2.70;;;20.30;99.90;;;;;;5068945;28;20024;-79
2022/09/23 03:40:21;;;;;;;5.20;1.80;;;20.40;99.90;;;;;;5058438;28;20049;-83
2022/09/23 03:42:49;;;;;;;7.63;2.25;;;20.40;99.90;;;;;;5058268;28;20060;-85
2022/09/23 03:45:26;;;;;;;10.38;1.92;;;20.40;99.90;;;;;;5067552;28;20037;-84
2022/09/23 03:47:53;;;;;;;6.32;2.25;;;20.20;99.90;;;;;;5068768;28;20454;-85
2022/09/23 03:50:21;;;;;;;6.43;1.52;;;20.10;99.90;;;;;;5068559;28;20025;-84
2022/09/23 03:52:49;;;;;;;13.80;3.15;;;20.10;99.90;;;;;;5072738;28;20753;-78
2022/09/23 03:55:18;;;;;;;8.25;2.67;;;20.10;99.90;;;;;;5052526;28;20435;-80
2022/09/23 03:57:46;;;;;;;13.13;2.30;;;20.10;99.90;;;;;;5070941;28;20036;-80
2022/09/23 04:00:15;;;;;;;13.77;3.67;;;20.00;99.90;;;;;;5055905;28;20035;-77
2022/09/23 04:02:43;;;;;;;7.72;2.47;;;19.80;99.90;;;;;;5067117;28;20028;-77
2022/09/23 04:05:12;;;;;;;8.65;2.40;;;19.60;99.90;;;;;;5082665;28;20031;-86
2022/09/23 04:07:40;;;;;;;9.80;3.08;;;19.40;99.90;;;;;;5073325;28;20391;-83
2022/09/23 04:10:08;;;;;;;5.78;2.25;;;19.20;99.90;;;;;;5071256;28;20024;-85
2022/09/23 04:12:36;;;;;;;7.38;2.03;;;19.00;99.90;;;;;;5058017;28;20184;-81
2022/09/23 04:15:04;;;;;;;4.38;1.50;;;18.70;99.90;;;;;;5069190;28;20740;-84
2022/09/23 04:17:31;;;;;;;8.85;2.60;;;18.50;99.90;;;;;;5067329;28;20386;-77
2022/09/23 04:19:59;;;;;;;9.82;3.30;;;18.30;99.90;;;;;;5069885;28;20017;-82
2022/09/23 04:22:27;;;;;;;7.78;1.67;;;18.20;99.90;;;;;;5070140;28;20530;-79
2022/09/23 04:24:55;;;;;;;5.30;1.60;;;18.10;99.90;;;;;;5076534;28;20024;-81
2022/09/23 04:27:22;;;;;;;5.65;2.60;;;18.10;99.90;;;;;;5071389;28;20048;-85
2022/09/23 04:29:49;;;;;;;6.05;2.22;;;18.00;99.90;;;;;;5075830;28;20162;-88
2022/09/23 04:32:17;;;;;;;14.70;2.65;;;18.10;99.90;;;;;;5059103;28;20029;-89
2022/09/23 04:34:44;;;;;;;12.02;1.48;;;18.10;99.90;;;;;;5074775;28;20374;-86
2022/09/23 04:37:11;;;;;;;9.68;2.25;;;18.20;99.90;;;;;;5060302;28;20027;-87
2022/09/23 04:39:39;;;;;;;4.78;2.10;;;18.30;99.90;;;;;;5071664;28;20040;-88
2022/09/23 04:42:06;;;;;;;6.65;2.50;;;18.40;99.90;;;;;;5073621;28;20044;-90
2022/09/23 04:44:33;;;;;;;8.43;1.45;;;18.50;99.90;;;;;;5051030;28;20032;-82
2022/09/23 04:47:01;;;;;;;5.82;2.10;;;18.50;99.90;;;;;;5072149;28;20032;-83
2022/09/23 04:49:32;;;;;;;6.45;1.45;;;18.60;99.90;;;;;;5083986;28;20041;-88
2022/09/23 04:52:00;;;;;;;3.58;1.45;;;18.70;99.90;;;;;;5075937;28;20383;-84
2022/09/23 04:54:28;;;;;;;7.38;1.80;;;18.80;99.90;;;;;;5074218;28;20024;-88
2022/09/23 04:56:55;;;;;;;5.25;1.50;;;18.90;99.90;;;;;;5077432;28;20549;-85
2022/09/23 04:59:23;;;;;;;4.88;1.45;;;19.00;99.90;;;;;;5052228;28;20120;-80
2022/09/23 05:01:54;;;;;;;5.78;1.58;;;19.00;99.90;;;;;;5070245;28;20032;-86
2022/09/23 05:04:21;;;;;;;8.18;2.55;;;19.10;99.90;;;;;;5060350;28;20033;-86
2022/09/23 05:06:49;;;;;;;9.98;2.15;;;19.10;99.90;;;;;;5063490;28;20027;-86
2022/09/23 05:09:18;;;;;;;3.30;0.98;;;19.10;99.90;;;;;;5084945;28;20028;-88
2022/09/23 05:11:46;;;;;;;6.78;1.80;;;19.00;99.90;;;;;;5070865;28;20126;-78
2022/09/23 05:14:13;;;;;;;6.22;1.83;;;19.00;99.90;;;;;;5074598;28;20478;-78
2022/09/23 05:16:41;;;;;;;6.57;1.73;;;19.00;99.90;;;;;;5072075;28;20025;-86
2022/09/23 05:19:08;;;;;;;4.72;1.50;;;19.00;99.90;;;;;;5072606;28;20085;-83
2022/09/23 05:21:36;;;;;;;7.22;2.45;;;19.00;99.90;;;;;;5069055;28;20842;-83
2022/09/23 05:24:04;;;;;;;4.47;1.15;;;19.10;99.90;;;;;;5042626;28;20025;-81
2022/09/23 05:26:32;;;;;;;14.18;2.35;;;19.20;99.90;;;;;;5065670;28;20054;-87
2022/09/23 05:29:00;;;;;;;7.75;2.25;;;19.30;99.90;;;;;;5064869;28;20052;-83
2022/09/23 05:31:28;;;;;;;6.28;2.28;;;19.40;99.90;;;;;;5061921;28;20072;-87
2022/09/23 05:34:06;;;;;;;2.78;1.35;;;19.60;99.90;;;;;;5067508;28;20053;-83
2022/09/23 05:36:35;;;;;;;6.00;1.30;;;19.60;99.90;;;;;;5068716;28;20078;-78
2022/09/23 05:39:04;;;;;;;7.07;2.25;;;19.60;99.90;;;;;;5067631;28;20036;-89
2022/09/23 05:41:32;;;;;;;6.93;2.35;;;19.80;99.90;;;;;;5056626;28;20070;-81
2022/09/23 05:44:00;;;;;;;8.02;2.15;;;19.80;99.90;;;;;;5061193;28;20033;-79
2022/09/23 05:46:29;;;;;;;5.93;1.48;;;19.80;99.90;;;;;;5069847;28;20021;-84
2022/09/23 05:48:58;;;;;;;5.72;2.15;;;19.80;99.90;;;;;;5062949;28;20032;-74
2022/09/23 05:51:27;;;;;;;2.45;1.33;;;19.80;99.90;;;;;;5069620;28;20063;-85
2022/09/23 05:53:57;;;;;;;8.20;2.13;;;19.80;99.90;;;;;;5071205;28;20086;-85
2022/09/23 05:56:26;;;;;;;8.55;1.42;;;19.80;99.90;;;;;;5066523;28;20032;-81
2022/09/23 05:58:56;;;;;;;7.78;2.10;;;19.70;99.90;;;;;;5067190;28;20108;-83
2022/09/23 06:01:30;;;;;;;4.78;1.48;;;19.60;99.90;;;;;;5059698;28;20421;-83
2022/09/23 06:03:59;;;;;;;4.45;1.38;;;19.60;99.90;;;;;;5074749;28;20031;-78
2022/09/23 06:06:37;;;;;;;5.60;1.48;;;19.60;99.90;;;;;;5073391;28;20020;-87
2022/09/23 06:09:06;;;;;;;4.57;2.50;;;19.60;99.90;;;;;;5049970;28;20036;-86
2022/09/23 06:11:35;;;;;;;6.07;1.48;;;19.60;99.90;;;;;;5072552;28;20124;-87
2022/09/23 06:14:02;;;;;;;3.60;1.95;;;19.60;99.90;;;;;;5058907;28;20115;-85
2022/09/23 06:16:33;;;;;;;5.47;1.25;;;19.60;99.90;;;;;;5060172;28;20522;-80
2022/09/23 06:19:04;;;;;;;4.78;2.20;;;19.50;99.90;;;;;;5059408;28;20445;-79
2022/09/23 06:21:33;;;;;;;5.90;1.80;;;19.60;99.90;;;;;;5069467;28;20104;-87
2022/09/23 06:24:01;;;;;;;4.78;2.28;;;19.50;99.90;;;;;;5078409;28;20056;-85
2022/09/23 06:26:35;;;;;;;4.22;1.88;;;19.50;99.90;;;;;;5069179;28;20431;-86
2022/09/23 06:29:03;;;;;;;6.90;2.50;;;19.50;99.90;;;;;;5063171;28;20032;-77
2022/09/23 06:31:31;;;;;;;4.10;1.50;;;19.50;99.90;;;;;;5064686;28;20119;-82
2022/09/23 06:33:59;;;;;;;6.88;2.67;;;19.50;99.90;;;;;;5066876;28;20026;-84
2022/09/23 06:36:26;;;;;;;10.32;2.38;;;19.60;99.90;;;;;;5037691;28;20028;-80
2022/09/23 06:38:53;;;;;;;6.65;2.17;;;19.60;99.90;;;;;;5048168;28;20029;-81
2022/09/23 06:41:21;;;;;;;6.63;2.45;;;19.60;99.90;;;;;;5063519;28;20478;-79
2022/09/23 06:43:48;;;;;;;4.35;2.28;;;19.50;99.90;;;;;;5084586;28;20024;-77
2022/09/23 06:46:16;;;;;;;9.80;3.10;;;19.50;99.90;;;;;;5086015;28;20024;-88
2022/09/23 06:48:44;;;;;;;6.32;2.45;;;19.50;99.90;;;;;;5072575;28;20079;-77
2022/09/23 06:51:20;;;;;;;10.00;2.15;;;19.50;99.90;;;;;;5062575;28;20029;-76
2022/09/23 06:53:48;;;;;;;6.93;1.83;;;19.40;99.90;;;;;;5071569;28;20178;-89
2022/09/23 06:56:18;;;;;;;7.93;2.47;;;19.40;99.90;;;;;;5067841;28;20024;-83
2022/09/23 06:58:46;;;;;;;9.43;2.42;;;19.40;99.90;;;;;;5065771;28;20059;-86
2022/09/23 07:01:15;;;;;;;6.60;2.03;;;19.40;99.90;;;;;;5057615;28;20017;-74
2022/09/23 07:03:44;;;;;;;8.02;2.75;;;19.40;99.90;;;;;;5059716;28;20029;-87
2022/09/23 07:06:12;;;;;;;5.65;2.22;;;19.40;99.90;;;;;;5078394;28;20421;-91
2022/09/23 07:08:41;;;;;;;5.97;2.50;;;19.40;99.90;;;;;;5069869;28;20024;-84
2022/09/23 07:11:11;;;;;;;7.95;2.88;;;19.30;99.90;;;;;;5072333;28;20020;-80
2022/09/23 07:13:40;;;;;;;7.07;2.03;;;19.30;99.90;;;;;;5074145;28;20456;-88
2022/09/23 07:16:08;;;;;;;4.78;1.98;;;19.20;99.90;;;;;;5073110;28;20083;-89
2022/09/23 07:18:36;;;;;;;7.47;2.33;;;19.20;99.90;;;;;;5084145;28;20579;-88
2022/09/23 07:21:15;;;;;;;8.70;2.15;;;19.10;99.90;;;;;;5054854;28;20105;-85
2022/09/23 07:23:49;;;;;;;6.32;1.98;;;19.00;99.90;;;;;;5069210;28;20024;-83
2022/09/23 07:26:17;;;;;;;7.97;1.67;;;19.00;99.90;;;;;;5062619;28;20033;-84
2022/09/23 07:28:45;;;;;;;9.90;1.73;;;19.00;99.90;;;;;;5083146;28;20031;-90
2022/09/23 07:31:16;;;;;;;8.73;2.08;;;18.90;99.90;;;;;;5086818;28;20095;-81
2022/09/23 07:33:44;;;;;;;8.57;2.42;;;18.80;99.90;;;;;;5066559;28;20485;-85
2022/09/23 07:36:16;;;;;;;9.45;2.33;;;18.80;99.90;;;;;;5065771;28;20099;-86
2022/09/23 07:38:43;;;;;;;10.30;3.30;;;18.80;99.90;;;;;;5070235;28;20048;-87
2022/09/23 07:41:14;;;;;;;6.50;2.03;;;18.80;99.90;;;;;;5065559;28;20040;-88
2022/09/23 07:43:42;;;;;;;10.23;2.53;;;18.70;99.90;;;;;;5058999;28;20349;-89
2022/09/23 07:46:15;;;;;;;10.35;2.47;;;18.70;99.90;;;;;;5076593;28;20020;-91
2022/09/23 07:48:44;;;;;;;7.35;1.63;;;18.70;99.90;;;;;;5071420;28;20032;-86
2022/09/23 07:51:35;;;;;;;10.45;2.22;;;18.60;99.90;;;;;;5067336;28;20024;-78
2022/09/23 07:54:07;;;;;;;10.88;2.17;;;18.60;99.90;;;;;;5080157;28;20036;-82
2022/09/23 07:56:35;;;;;;;12.15;2.35;;;18.60;99.90;;;;;;5063197;28;20085;-84
2022/09/23 07:59:03;;;;;;;11.70;2.15;;;18.50;99.90;;;;;;5065643;28;20158;-89
2022/09/23 08:01:37;;;;;;;8.98;2.83;;;18.50;99.90;;;;;;5067091;28;20380;-88
2022/09/23 08:04:27;;;;;;;14.30;2.50;;;18.50;99.90;;;;;;5054708;28;20028;-86
2022/09/23 08:06:57;;;;;;;13.13;2.03;;;18.50;99.90;;;;;;5057578;28;20029;-85
2022/09/23 08:09:28;;;;;;;4.45;1.80;;;18.40;99.90;;;;;;5052384;28;20029;-92
2022/09/23 08:11:56;;;;;;;10.63;2.63;;;18.40;99.90;;;;;;5064026;28;20032;-86
2022/09/23 08:14:23;;;;;;;7.95;2.38;;;18.40;99.90;;;;;;5071668;28;20028;-83
2022/09/23 08:16:51;;;;;;;10.43;3.42;;;18.40;99.90;;;;;;5057578;28;20425;-83
2022/09/23 08:19:19;;;;;;;7.65;2.35;;;18.40;99.90;;;;;;5061131;28;20039;-87
2022/09/23 08:21:46;;;;;;;6.45;2.10;;;18.40;99.90;;;;;;5068760;28;20044;-80
2022/09/23 08:24:19;;;;;;;9.50;2.10;;;18.30;99.90;;;;;;5071572;28;20040;-90
2022/09/23 08:26:48;;;;;;;12.13;1.85;;;18.30;99.90;;;;;;5069045;28;20558;-83
2022/09/23 08:29:20;;;;;;;17.58;4.13;;;18.30;99.90;;;;;;5064228;28;20117;-81
2022/09/23 08:31:48;;;;;;;9.02;2.08;;;18.30;99.90;;;;;;5066317;28;20045;-79
2022/09/23 08:34:20;;;;;;;11.82;2.58;;;18.30;99.90;;;;;;5066623;28;20032;-79
2022/09/23 08:36:48;;;;;;;7.30;1.77;;;18.20;99.90;;;;;;5066409;28;20381;-84
2022/09/23 08:39:17;;;;;;;11.38;1.88;;;18.20;99.90;;;;;;5060961;28;20027;-78
2022/09/23 08:41:54;;;;;;;12.02;1.88;;;18.20;99.90;;;;;;5069605;28;20494;-80
2022/09/23 08:44:36;;;;;;;7.90;2.65;;;18.20;99.90;;;;;;5069173;28;20033;-86
2022/09/23 08:47:15;;;;;;;14.10;3.67;;;18.20;99.90;;;;;;5079004;28;20024;-84
2022/09/23 08:49:48;;;;;;;11.13;2.08;;;18.20;99.90;;;;;;5076636;28;20107;-83
2022/09/23 08:52:27;;;;;;;7.57;1.92;;;18.20;99.90;;;;;;5073368;28;20390;-86
2022/09/23 08:54:55;;;;;;;8.63;2.17;;;18.10;99.90;;;;;;5077444;28;20025;-82
2022/09/23 08:57:54;;;;;;;8.27;2.67;;;18.20;99.90;;;;;;5076245;28;20033;-77
2022/09/23 09:00:28;;;;;;;7.55;1.95;;;18.20;99.90;;;;;;5048803;28;20040;-86
2022/09/23 09:02:56;;;;;;;8.55;2.25;;;18.10;99.90;;;;;;5073688;28;20028;-82
2022/09/23 09:05:27;;;;;;;11.55;2.65;;;18.10;99.90;;;;;;5075424;28;20055;-87
2022/09/23 09:07:59;;;;;;;12.07;2.92;;;18.00;99.90;;;;;;5074298;28;20059;-87
2022/09/23 09:10:34;;;;;;;8.70;1.90;;;18.00;99.90;;;;;;5081781;28;20035;-80
2022/09/23 09:13:11;;;;;;;8.97;2.67;;;18.00;99.90;;;;;;5061696;28;20094;-81
2022/09/23 09:16:10;;;;;;;10.00;2.97;;;18.00;99.90;;;;;;5064514;28;20562;-84
2022/09/23 09:19:01;;;;;;;13.90;2.38;;;18.00;99.90;;;;;;5069695;28;20025;-89
2022/09/23 09:21:37;;;;;;;6.30;2.47;;;18.00;99.90;;;;;;5077755;28;20024;-81
2022/09/23 09:24:16;;;;;;;12.50;3.38;;;17.90;99.90;;;;;;5075234;28;20048;-82
2022/09/23 09:26:44;;;;;;;13.70;3.58;;;17.90;99.90;;;;;;5064872;28;20043;-78
2022/09/23 09:29:14;;;;;;;7.20;2.13;;;17.90;99.90;;;;;;5074338;28;20021;-82
2022/09/23 09:31:46;;;;;;;8.93;2.88;;;17.90;99.90;;;;;;5071495;28;20052;-86
2022/09/23 09:34:23;;;;;;;21.42;3.03;;;17.80;99.90;;;;;;5089297;28;20141;-85
2022/09/23 09:37:05;;;;;;;10.48;2.85;;;17.90;99.90;;;;;;5073664;28;20383;-86
2022/09/23 09:39:34;;;;;;;5.75;2.17;;;17.90;99.90;;;;;;5067704;28;20372;-85
2022/09/23 09:42:03;;;;;;;11.15;2.13;;;17.90;99.90;;;;;;5075211;28;20087;-83
2022/09/23 09:45:00;;;;;;;10.23;2.42;;;17.90;99.90;;;;;;5062757;28;20139;-85
2022/09/23 09:47:48;;;;;;;7.88;2.38;;;17.80;99.90;;;;;;5072764;28;20103;-85
2022/09/23 09:50:37;;;;;;;13.80;3.85;;;17.80;99.90;;;;;;5064974;28;20478;-82
2022/09/23 09:53:26;;;;;;;11.02;2.50;;;17.80;99.90;;;;;;5071195;28;20545;-84
2022/09/23 09:56:04;;;;;;;11.90;3.35;;;17.80;99.90;;;;;;5077831;28;20167;-86
2022/09/23 09:58:47;;;;;;;13.98;4.68;;;17.80;99.90;;;;;;5057289;28;20057;-83
2022/09/23 10:01:22;;;;;;;7.07;2.58;;;17.80;99.90;;;;;;5076609;28;20035;-84
2022/09/23 10:03:52;;;;;;;11.80;3.42;;;17.80;99.90;;;;;;5079438;28;20032;-86
2022/09/23 10:06:26;;;;;;;12.55;3.38;;;17.80;99.90;;;;;;5078023;28;20024;-84
2022/09/23 10:09:18;;;;;;;11.77;2.72;;;17.80;99.90;;;;;;5087119;28;20490;-83
2022/09/23 10:12:03;;;;;;;7.57;2.80;;;17.80;99.90;;;;;;5080982;28;20039;-82
2022/09/23 10:14:31;;;;;;;8.05;3.05;;;17.70;99.90;;;;;;5093969;28;20050;-84
2022/09/23 10:17:06;;;;;;;10.55;3.08;;;17.70;99.90;;;;;;5061957;28;20391;-82
2022/09/23 10:19:37;;;;;;;9.98;3.10;;;17.70;99.90;;;;;;5053202;28;20384;-83
2022/09/23 10:22:16;;;;;;;13.60;3.67;;;17.60;99.90;;;;;;5060917;28;20059;-81
2022/09/23 10:24:50;;;;;;;11.60;3.88;;;17.60;99.90;;;;;;5063555;28;20467;-84
2022/09/23 10:27:30;;;;;;;16.40;4.05;;;17.60;99.90;;;;;;5075136;28;20029;-84
2022/09/23 10:30:20;;;;;;;9.98;3.90;;;17.60;99.90;;;;;;5079847;28;20027;-86
2022/09/23 10:32:48;;;;;;;12.48;3.15;;;17.60;99.90;;;;;;5067221;28;20064;-87
2022/09/23 10:35:20;;;;;;;9.00;2.83;;;17.50;99.90;;;;;;5071407;28;20066;-83
2022/09/23 10:37:56;;;;;;;15.40;5.57;;;17.50;99.90;;;;;;5084227;28;20035;-84
2022/09/23 10:46:37;;;;;;;9.05;3.60;;;17.50;99.90;;;;;;5070417;28;20047;-88
2022/09/23 10:49:29;;;;;;;10.52;4.35;;;17.50;99.90;;;;;;5060793;28;20024;-88
2022/09/23 10:52:30;;;;;;;12.68;4.40;;;17.40;99.90;;;;;;5060173;28;20040;-82
2022/09/23 10:55:40;;;;;;;8.77;5.05;;;17.40;99.90;;;;;;5033639;28;20062;-86
2022/09/23 10:58:25;;;;;;;15.85;3.95;;;17.40;99.90;;;;;;5061938;28;20480;-86
2022/09/23 11:01:24;;;;;;;12.55;5.05;;;17.40;99.90;;;;;;5082838;28;20032;-83
2022/09/23 11:04:27;;;;;;;19.70;6.28;;;17.40;99.90;;;;;;5070582;28;20039;-83
2022/09/23 11:07:07;;;;;;;13.77;4.65;;;17.40;99.90;;;;;;5066023;28;20032;-82
2022/09/23 11:09:51;;;;;;;11.95;5.28;;;17.40;99.90;;;;;;5056035;28;20455;-84
2022/09/23 11:12:44;;;;;;;12.65;4.55;;;17.40;99.90;;;;;;5077421;28;20080;-79
2022/09/23 11:15:20;;;;;;;10.82;4.68;;;17.40;99.90;;;;;;5076983;28;20181;-84
2022/09/23 11:18:06;;;;;;;12.18;4.55;;;17.30;99.90;;;;;;5065687;28;20051;-87
2022/09/23 11:20:54;;;;;;;9.47;4.70;;;17.30;99.90;;;;;;5079032;28;20027;-87
2022/09/23 11:23:45;;;;;;;12.80;5.40;;;17.30;99.90;;;;;;5064004;28;20285;-86
2022/09/23 11:27:04;;;;;;;15.95;7.13;;;17.40;99.90;;;;;;5060235;28;20028;-86
2022/09/23 11:29:55;;;;;;;20.15;8.95;;;17.30;99.90;;;;;;5026467;28;20063;-89
2022/09/23 11:32:52;;;;;;;21.20;7.90;;;17.40;99.90;;;;;;5058771;28;20056;-88
2022/09/23 11:35:57;;;;;;;20.02;8.43;;;17.40;99.90;;;;;;5055133;28;20071;-85
2022/09/23 11:38:36;;;;;;;16.77;7.57;;;17.40;99.90;;;;;;5071450;28;20040;-87
2022/09/23 11:41:22;;;;;;;15.63;8.73;;;17.40;99.90;;;;;;5074098;28;20104;-86
2022/09/23 11:43:57;;;;;;;14.10;8.63;;;17.40;99.90;;;;;;5059321;28;20150;-78
2022/09/23 11:46:44;;;;;;;13.00;6.75;;;17.40;99.90;;;;;;5062042;28;20483;-90
2022/09/23 11:49:17;;;;;;;13.45;6.72;;;17.40;99.90;;;;;;5060227;28;20530;-85
2022/09/23 11:52:19;;;;;;;14.32;7.82;;;17.40;99.90;;;;;;5056102;28;20108;-87
2022/09/23 11:54:51;;;;;;;14.68;8.05;;;17.50;99.90;;;;;;5062658;28;20044;-83
2022/09/23 11:57:48;;;;;;;17.25;7.75;;;17.50;99.90;;;;;;5055961;28;20020;-81
2022/09/23 12:00:27;;;;;;;16.27;7.50;;;17.50;99.90;;;;;;5064657;28;20048;-78
2022/09/23 12:03:30;;;;;;;16.48;7.07;;;17.50;99.90;;;;;;5059701;28;20060;-85
2022/09/23 12:06:08;;;;;;;12.02;6.85;;;17.50;99.90;;;;;;5047550;28;20036;-90
2022/09/23 12:08:36;;;;;;;10.18;7.32;;;17.50;99.90;;;;;;5090264;28;20032;-92
2022/09/23 12:11:21;;;;;;;13.70;6.50;;;17.50;99.90;;;;;;5064716;28;20033;-87
2022/09/23 12:14:00;;;;;;;12.80;5.88;;;17.40;99.90;;;;;;5063644;28;20048;-80
2022/09/23 12:17:04;;;;;;;12.82;6.53;;;17.40;99.90;;;;;;5070465;28;20107;-84
2022/09/23 12:19:56;;;;;;;17.92;7.70;;;17.40;99.90;;;;;;5063537;28;20017;-83
2022/09/23 12:22:42;;;;;;;14.93;6.93;;;17.40;99.90;;;;;;5066574;28;20115;-82
2022/09/23 12:25:20;;;;;;;;;;;17.30;99.90;;;;;;5064104;28;20033;-80
2022/09/23 12:27:51;;;;;;;21.60;8.85;;;17.30;99.90;;;;;;5060977;28;19919;-85
2022/09/23 12:30:28;;;;;;;12.98;6.05;;;17.30;99.90;;;;;;5075699;28;20031;-83
2022/09/23 12:33:14;;;;;;;15.63;6.40;;;17.20;99.90;;;;;;5069089;28;20044;-84
2022/09/23 12:35:45;;;;;;;11.85;6.70;;;17.30;99.90;;;;;;5072458;28;20027;-83
2022/09/23 12:38:25;;;;;;;15.60;7.82;;;17.30;99.90;;;;;;5065001;28;20106;-79
2022/09/23 12:40:56;;;;;;;13.98;7.30;;;17.30;99.90;;;;;;5066844;28;20035;-84
2022/09/23 12:43:34;;;;;;;15.07;6.93;;;17.30;99.90;;;;;;5070228;28;20107;-85
2022/09/23 12:46:21;;;;;;;11.25;6.22;;;17.30;99.90;;;;;;5045537;28;20123;-84
2022/09/23 12:48:58;;;;;;;20.95;8.32;;;17.30;99.90;;;;;;5057385;28;20017;-79
2022/09/23 12:51:36;;;;;;;15.05;8.07;;;17.20;99.90;;;;;;5050162;28;20035;-79
2022/09/23 12:54:35;;;;;;;17.45;7.32;;;17.20;99.90;;;;;;5085418;28;20046;-83
2022/09/23 12:57:10;;;;;;;21.10;7.82;;;17.20;99.90;;;;;;5048987;28;20085;-82
2022/09/23 12:59:56;;;;;;;20.70;6.95;;;17.20;99.90;;;;;;5067782;28;20029;-83
2022/09/23 13:02:31;;;;;;;17.83;7.43;;;17.20;99.90;;;;;;5073957;28;20061;-80
2022/09/23 13:08:29;;;;;;;16.60;6.80;;;17.20;99.90;;;;;;5063051;28;20056;-81
2022/09/23 13:11:07;;;;;;;22.80;8.82;;;17.20;99.90;;;;;;4995294;28;20042;-83
2022/09/23 13:13:44;;;;;;;17.42;6.78;;;17.10;99.90;;;;;;5053604;28;20037;-81
2022/09/23 13:16:14;;;;;;;18.80;8.55;;;17.10;99.90;;;;;;5050351;28;20549;-81
2022/09/23 13:18:56;;;;;;;11.63;6.47;;;17.10;99.90;;;;;;5059280;28;20033;-82
2022/09/23 13:21:41;;;;;;;15.00;6.53;;;17.10;99.90;;;;;;5056436;28;20107;-80
2022/09/23 13:24:18;;;;;;;17.73;6.60;;;17.00;99.90;;;;;;5054550;28;20021;-83
2022/09/23 13:26:54;;;;;;;18.23;7.28;;;17.00;99.90;;;;;;5067344;28;20101;-80
2022/09/23 13:29:39;;;;;;;13.48;6.22;;;17.00;99.90;;;;;;5066207;28;20021;-82
2022/09/23 13:32:18;;;;;;;19.70;8.85;;;17.00;99.90;;;;;;5065583;28;20055;-83
2022/09/23 13:35:14;;;;;;;13.45;6.93;;;17.00;99.90;;;;;;5076819;28;20039;-82
2022/09/23 13:37:46;;;;;;;14.90;8.10;;;17.00;99.90;;;;;;5067139;28;22332;-83